sensor_id;sensor_type;location;lat;lon;timestamp;P1;P2;P0
48717;PMS5003;34521;33.042;-96.586;2023-11-19T00:01:13;5;5;
48717;PMS5003;34521;33.042;-96.586;2023-11-19T00:03:38;5;5;
48717;PMS5003;34521;33.042;-96.586;2023-11-19T00:06:04;5;5;
48717;PMS5003;34521;33.042;-96.586;2023-11-19T00:08:29;5;4;
48717;PMS5003;34521;33.042;-96.586;2023-11-19T00:10:54;6;6;
48717;PMS5003;34521;33.042;-96.586;2023-11-19T00:13:19;7;6;
48717;PMS5003;34521;33.042;-96.586;2023-11-19T00:15:45;7;7;
48717;PMS5003;34521;33.042;-96.586;2023-11-19T00:18:09;6;6;
48717;PMS5003;34521;33.042;-96.586;2023-11-19T00:20:34;6;6;
48717;PMS5003;34521;33.042;-96.586;2023-11-19T00:22:59;5;4;
48717;PMS5003;34521;33.042;-96.586;2023-11-19T00:25:24;7;4;
48717;PMS5003;34521;33.042;-96.586;2023-11-19T00:27:49;7;6;
48717;PMS5003;34521;33.042;-96.586;2023-11-19T00:30:14;4;4;
48717;PMS5003;34521;33.042;-96.586;2023-11-19T00:32:39;5;5;
48717;PMS5003;34521;33.042;-96.586;2023-11-19T00:35:04;3;3;
48717;PMS5003;34521;33.042;-96.586;2023-11-19T00:37:29;6;6;
48717;PMS5003;34521;33.042;-96.586;2023-11-19T00:39:54;6;5;
48717;PMS5003;34521;33.042;-96.586;2023-11-19T00:42:19;5;5;
48717;PMS5003;34521;33.042;-96.586;2023-11-19T00:44:44;7;7;
48717;PMS5003;34521;33.042;-96.586;2023-11-19T00:47:09;6;6;
48717;PMS5003;34521;33.042;-96.586;2023-11-19T00:49:35;5;4;
48717;PMS5003;34521;33.042;-96.586;2023-11-19T00:52:00;6;6;
48717;PMS5003;34521;33.042;-96.586;2023-11-19T00:54:25;6;6;
48717;PMS5003;34521;33.042;-96.586;2023-11-19T00:56:50;6;6;
48717;PMS5003;34521;33.042;-96.586;2023-11-19T00:59:15;6;5;
48717;PMS5003;34521;33.042;-96.586;2023-11-19T01:01:40;7;7;
48717;PMS5003;34521;33.042;-96.586;2023-11-19T01:04:05;5;5;
48717;PMS5003;34521;33.042;-96.586;2023-11-19T01:06:30;5;5;
48717;PMS5003;34521;33.042;-96.586;2023-11-19T01:08:55;5;5;
48717;PMS5003;34521;33.042;-96.586;2023-11-19T01:11:20;3;3;
48717;PMS5003;34521;33.042;-96.586;2023-11-19T01:13:45;5;4;
48717;PMS5003;34521;33.042;-96.586;2023-11-19T01:16:10;5;5;
48717;PMS5003;34521;33.042;-96.586;2023-11-19T01:18:35;5;4;
48717;PMS5003;34521;33.042;-96.586;2023-11-19T01:21:00;2;2;
48717;PMS5003;34521;33.042;-96.586;2023-11-19T01:23:25;5;5;
48717;PMS5003;34521;33.042;-96.586;2023-11-19T01:25:50;5;5;
48717;PMS5003;34521;33.042;-96.586;2023-11-19T01:28:15;5;5;
48717;PMS5003;34521;33.042;-96.586;2023-11-19T01:30:40;6;5;
48717;PMS5003;34521;33.042;-96.586;2023-11-19T01:33:05;4;4;
48717;PMS5003;34521;33.042;-96.586;2023-11-19T01:35:31;4;4;
48717;PMS5003;34521;33.042;-96.586;2023-11-19T01:37:56;4;4;
48717;PMS5003;34521;33.042;-96.586;2023-11-19T01:40:21;4;4;
48717;PMS5003;34521;33.042;-96.586;2023-11-19T01:42:46;4;4;
48717;PMS5003;34521;33.042;-96.586;2023-11-19T01:45:11;5;5;
48717;PMS5003;34521;33.042;-96.586;2023-11-19T01:47:36;5;5;
48717;PMS5003;34521;33.042;-96.586;2023-11-19T01:50:01;6;5;
48717;PMS5003;34521;33.042;-96.586;2023-11-19T01:52:26;5;4;
48717;PMS5003;34521;33.042;-96.586;2023-11-19T01:54:51;5;5;
48717;PMS5003;34521;33.042;-96.586;2023-11-19T01:57:16;4;4;
48717;PMS5003;34521;33.042;-96.586;2023-11-19T01:59:42;4;4;
48717;PMS5003;34521;33.042;-96.586;2023-11-19T02:02:07;5;5;
48717;PMS5003;34521;33.042;-96.586;2023-11-19T02:04:32;6;6;
48717;PMS5003;34521;33.042;-96.586;2023-11-19T02:06:57;4;4;
48717;PMS5003;34521;33.042;-96.586;2023-11-19T02:09:23;5;5;
48717;PMS5003;34521;33.042;-96.586;2023-11-19T02:11:47;5;5;
48717;PMS5003;34521;33.042;-96.586;2023-11-19T02:14:12;4;4;
48717;PMS5003;34521;33.042;-96.586;2023-11-19T02:16:37;5;5;
48717;PMS5003;34521;33.042;-96.586;2023-11-19T02:19:02;7;6;
48717;PMS5003;34521;33.042;-96.586;2023-11-19T02:21:27;7;5;
48717;PMS5003;34521;33.042;-96.586;2023-11-19T02:23:53;5;4;
48717;PMS5003;34521;33.042;-96.586;2023-11-19T02:26:18;5;4;
48717;PMS5003;34521;33.042;-96.586;2023-11-19T02:28:42;7;6;
48717;PMS5003;34521;33.042;-96.586;2023-11-19T02:31:08;5;5;
48717;PMS5003;34521;33.042;-96.586;2023-11-19T02:33:32;6;6;
48717;PMS5003;34521;33.042;-96.586;2023-11-19T02:35:58;6;6;
48717;PMS5003;34521;33.042;-96.586;2023-11-19T02:38:23;5;4;
48717;PMS5003;34521;33.042;-96.586;2023-11-19T02:40:48;6;5;
48717;PMS5003;34521;33.042;-96.586;2023-11-19T02:43:13;6;6;
48717;PMS5003;34521;33.042;-96.586;2023-11-19T02:45:38;4;4;
48717;PMS5003;34521;33.042;-96.586;2023-11-19T02:48:03;5;5;
48717;PMS5003;34521;33.042;-96.586;2023-11-19T02:50:28;6;5;
48717;PMS5003;34521;33.042;-96.586;2023-11-19T02:52:54;5;5;
48717;PMS5003;34521;33.042;-96.586;2023-11-19T02:55:18;5;5;
48717;PMS5003;34521;33.042;-96.586;2023-11-19T02:57:43;6;6;
48717;PMS5003;34521;33.042;-96.586;2023-11-19T03:00:08;6;6;
48717;PMS5003;34521;33.042;-96.586;2023-11-19T03:02:33;6;6;
48717;PMS5003;34521;33.042;-96.586;2023-11-19T03:04:58;5;5;
48717;PMS5003;34521;33.042;-96.586;2023-11-19T03:07:23;6;6;
48717;PMS5003;34521;33.042;-96.586;2023-11-19T03:09:48;5;4;
48717;PMS5003;34521;33.042;-96.586;2023-11-19T03:12:13;6;5;
48717;PMS5003;34521;33.042;-96.586;2023-11-19T03:14:38;7;6;
48717;PMS5003;34521;33.042;-96.586;2023-11-19T03:17:03;6;5;
48717;PMS5003;34521;33.042;-96.586;2023-11-19T03:19:29;4;4;
48717;PMS5003;34521;33.042;-96.586;2023-11-19T03:21:53;5;5;
48717;PMS5003;34521;33.042;-96.586;2023-11-19T03:24:18;5;5;
48717;PMS5003;34521;33.042;-96.586;2023-11-19T03:26:48;4;4;
48717;PMS5003;34521;33.042;-96.586;2023-11-19T03:29:09;6;6;
48717;PMS5003;34521;33.042;-96.586;2023-11-19T03:31:34;5;4;
48717;PMS5003;34521;33.042;-96.586;2023-11-19T03:33:59;6;6;
48717;PMS5003;34521;33.042;-96.586;2023-11-19T03:36:24;6;6;
48717;PMS5003;34521;33.042;-96.586;2023-11-19T03:38:51;4;4;
48717;PMS5003;34521;33.042;-96.586;2023-11-19T03:41:14;6;6;
48717;PMS5003;34521;33.042;-96.586;2023-11-19T03:43:39;6;6;
48717;PMS5003;34521;33.042;-96.586;2023-11-19T03:46:05;6;6;
48717;PMS5003;34521;33.042;-96.586;2023-11-19T03:48:29;3;3;
48717;PMS5003;34521;33.042;-96.586;2023-11-19T03:50:54;7;7;
48717;PMS5003;34521;33.042;-96.586;2023-11-19T03:53:20;5;5;
48717;PMS5003;34521;33.042;-96.586;2023-11-19T03:55:45;4;4;
48717;PMS5003;34521;33.042;-96.586;2023-11-19T03:58:10;6;6;
48717;PMS5003;34521;33.042;-96.586;2023-11-19T04:00:35;3;3;
48717;PMS5003;34521;33.042;-96.586;2023-11-19T04:03:00;5;5;
48717;PMS5003;34521;33.042;-96.586;2023-11-19T04:05:25;5;5;
48717;PMS5003;34521;33.042;-96.586;2023-11-19T04:07:50;4;4;
48717;PMS5003;34521;33.042;-96.586;2023-11-19T04:10:15;7;5;
48717;PMS5003;34521;33.042;-96.586;2023-11-19T04:12:40;6;6;
48717;PMS5003;34521;33.042;-96.586;2023-11-19T04:15:06;6;6;
48717;PMS5003;34521;33.042;-96.586;2023-11-19T04:17:30;7;6;
48717;PMS5003;34521;33.042;-96.586;2023-11-19T04:19:55;5;5;
48717;PMS5003;34521;33.042;-96.586;2023-11-19T04:22:20;6;6;
48717;PMS5003;34521;33.042;-96.586;2023-11-19T04:24:45;6;5;
48717;PMS5003;34521;33.042;-96.586;2023-11-19T04:27:11;5;5;
48717;PMS5003;34521;33.042;-96.586;2023-11-19T04:29:35;6;6;
48717;PMS5003;34521;33.042;-96.586;2023-11-19T04:32:00;4;4;
48717;PMS5003;34521;33.042;-96.586;2023-11-19T04:34:25;6;5;
48717;PMS5003;34521;33.042;-96.586;2023-11-19T04:36:50;4;4;
48717;PMS5003;34521;33.042;-96.586;2023-11-19T04:39:16;4;4;
48717;PMS5003;34521;33.042;-96.586;2023-11-19T04:41:46;5;5;
48717;PMS5003;34521;33.042;-96.586;2023-11-19T04:44:06;5;5;
48717;PMS5003;34521;33.042;-96.586;2023-11-19T04:46:31;5;5;
48717;PMS5003;34521;33.042;-96.586;2023-11-19T04:48:56;4;4;
48717;PMS5003;34521;33.042;-96.586;2023-11-19T04:51:21;6;5;
48717;PMS5003;34521;33.042;-96.586;2023-11-19T04:53:46;5;5;
48717;PMS5003;34521;33.042;-96.586;2023-11-19T04:56:11;5;5;
48717;PMS5003;34521;33.042;-96.586;2023-11-19T04:58:36;6;5;
48717;PMS5003;34521;33.042;-96.586;2023-11-19T05:01:01;6;6;
48717;PMS5003;34521;33.042;-96.586;2023-11-19T05:03:26;7;6;
48717;PMS5003;34521;33.042;-96.586;2023-11-19T05:05:51;7;6;
48717;PMS5003;34521;33.042;-96.586;2023-11-19T05:08:16;5;5;
48717;PMS5003;34521;33.042;-96.586;2023-11-19T05:10:41;8;5;
48717;PMS5003;34521;33.042;-96.586;2023-11-19T05:13:06;5;5;
48717;PMS5003;34521;33.042;-96.586;2023-11-19T05:15:31;5;4;
48717;PMS5003;34521;33.042;-96.586;2023-11-19T05:17:56;6;6;
48717;PMS5003;34521;33.042;-96.586;2023-11-19T05:20:21;4;4;
48717;PMS5003;34521;33.042;-96.586;2023-11-19T05:22:46;6;6;
48717;PMS5003;34521;33.042;-96.586;2023-11-19T05:25:12;4;4;
48717;PMS5003;34521;33.042;-96.586;2023-11-19T05:27:37;4;4;
48717;PMS5003;34521;33.042;-96.586;2023-11-19T05:30:02;3;3;
48717;PMS5003;34521;33.042;-96.586;2023-11-19T05:32:27;6;5;
48717;PMS5003;34521;33.042;-96.586;2023-11-19T05:34:52;5;4;
48717;PMS5003;34521;33.042;-96.586;2023-11-19T05:37:17;5;5;
48717;PMS5003;34521;33.042;-96.586;2023-11-19T05:39:42;6;5;
48717;PMS5003;34521;33.042;-96.586;2023-11-19T05:42:07;4;4;
48717;PMS5003;34521;33.042;-96.586;2023-11-19T05:44:32;4;4;
48717;PMS5003;34521;33.042;-96.586;2023-11-19T05:46:57;6;6;
48717;PMS5003;34521;33.042;-96.586;2023-11-19T05:49:22;6;6;
48717;PMS5003;34521;33.042;-96.586;2023-11-19T05:51:47;5;5;
48717;PMS5003;34521;33.042;-96.586;2023-11-19T05:54:12;5;5;
48717;PMS5003;34521;33.042;-96.586;2023-11-19T05:56:37;6;5;
48717;PMS5003;34521;33.042;-96.586;2023-11-19T05:59:02;6;5;
48717;PMS5003;34521;33.042;-96.586;2023-11-19T06:01:27;5;5;
48717;PMS5003;34521;33.042;-96.586;2023-11-19T06:03:52;4;4;
48717;PMS5003;34521;33.042;-96.586;2023-11-19T06:06:17;5;5;
48717;PMS5003;34521;33.042;-96.586;2023-11-19T06:08:43;6;5;
48717;PMS5003;34521;33.042;-96.586;2023-11-19T06:11:09;5;5;
48717;PMS5003;34521;33.042;-96.586;2023-11-19T06:13:33;5;5;
48717;PMS5003;34521;33.042;-96.586;2023-11-19T06:15:58;6;5;
48717;PMS5003;34521;33.042;-96.586;2023-11-19T06:18:23;5;5;
48717;PMS5003;34521;33.042;-96.586;2023-11-19T06:20:48;7;6;
48717;PMS5003;34521;33.042;-96.586;2023-11-19T06:23:13;6;5;
48717;PMS5003;34521;33.042;-96.586;2023-11-19T06:25:38;6;6;
48717;PMS5003;34521;33.042;-96.586;2023-11-19T06:28:03;6;5;
48717;PMS5003;34521;33.042;-96.586;2023-11-19T06:30:28;4;4;
48717;PMS5003;34521;33.042;-96.586;2023-11-19T06:32:53;5;5;
48717;PMS5003;34521;33.042;-96.586;2023-11-19T06:35:18;5;5;
48717;PMS5003;34521;33.042;-96.586;2023-11-19T06:37:43;5;5;
48717;PMS5003;34521;33.042;-96.586;2023-11-19T06:40:09;5;5;
48717;PMS5003;34521;33.042;-96.586;2023-11-19T06:42:33;4;4;
48717;PMS5003;34521;33.042;-96.586;2023-11-19T06:44:58;6;6;
48717;PMS5003;34521;33.042;-96.586;2023-11-19T06:47:25;2;2;
48717;PMS5003;34521;33.042;-96.586;2023-11-19T06:49:48;6;6;
48717;PMS5003;34521;33.042;-96.586;2023-11-19T06:52:13;6;6;
48717;PMS5003;34521;33.042;-96.586;2023-11-19T06:54:39;5;5;
48717;PMS5003;34521;33.042;-96.586;2023-11-19T06:57:04;6;6;
48717;PMS5003;34521;33.042;-96.586;2023-11-19T06:59:29;6;6;
48717;PMS5003;34521;33.042;-96.586;2023-11-19T07:01:54;8;8;
48717;PMS5003;34521;33.042;-96.586;2023-11-19T07:04:19;6;6;
48717;PMS5003;34521;33.042;-96.586;2023-11-19T07:06:44;6;6;
48717;PMS5003;34521;33.042;-96.586;2023-11-19T07:09:09;7;6;
48717;PMS5003;34521;33.042;-96.586;2023-11-19T07:11:34;7;7;
48717;PMS5003;34521;33.042;-96.586;2023-11-19T07:13:59;5;5;
48717;PMS5003;34521;33.042;-96.586;2023-11-19T07:16:24;5;5;
48717;PMS5003;34521;33.042;-96.586;2023-11-19T07:18:49;5;5;
48717;PMS5003;34521;33.042;-96.586;2023-11-19T07:21:14;6;6;
48717;PMS5003;34521;33.042;-96.586;2023-11-19T07:23:39;7;6;
48717;PMS5003;34521;33.042;-96.586;2023-11-19T07:26:05;7;7;
48717;PMS5003;34521;33.042;-96.586;2023-11-19T07:28:29;6;6;
48717;PMS5003;34521;33.042;-96.586;2023-11-19T07:30:54;5;5;
48717;PMS5003;34521;33.042;-96.586;2023-11-19T07:33:19;3;3;
48717;PMS5003;34521;33.042;-96.586;2023-11-19T07:35:44;5;5;
48717;PMS5003;34521;33.042;-96.586;2023-11-19T07:38:09;5;5;
48717;PMS5003;34521;33.042;-96.586;2023-11-19T07:40:34;7;7;
48717;PMS5003;34521;33.042;-96.586;2023-11-19T07:43:00;5;5;
48717;PMS5003;34521;33.042;-96.586;2023-11-19T07:45:25;6;6;
48717;PMS5003;34521;33.042;-96.586;2023-11-19T07:47:49;5;5;
48717;PMS5003;34521;33.042;-96.586;2023-11-19T07:50:15;6;6;
48717;PMS5003;34521;33.042;-96.586;2023-11-19T07:52:40;5;4;
48717;PMS5003;34521;33.042;-96.586;2023-11-19T07:55:05;5;5;
48717;PMS5003;34521;33.042;-96.586;2023-11-19T07:57:30;4;4;
48717;PMS5003;34521;33.042;-96.586;2023-11-19T07:59:55;6;6;
48717;PMS5003;34521;33.042;-96.586;2023-11-19T08:02:20;6;6;
48717;PMS5003;34521;33.042;-96.586;2023-11-19T08:04:45;6;6;
48717;PMS5003;34521;33.042;-96.586;2023-11-19T08:07:10;6;6;
48717;PMS5003;34521;33.042;-96.586;2023-11-19T08:09:35;9;7;
48717;PMS5003;34521;33.042;-96.586;2023-11-19T08:12:00;6;6;
48717;PMS5003;34521;33.042;-96.586;2023-11-19T08:14:25;5;5;
48717;PMS5003;34521;33.042;-96.586;2023-11-19T08:16:50;4;4;
48717;PMS5003;34521;33.042;-96.586;2023-11-19T08:19:15;4;4;
48717;PMS5003;34521;33.042;-96.586;2023-11-19T08:21:40;5;5;
48717;PMS5003;34521;33.042;-96.586;2023-11-19T08:24:05;7;5;
48717;PMS5003;34521;33.042;-96.586;2023-11-19T08:26:30;5;5;
48717;PMS5003;34521;33.042;-96.586;2023-11-19T08:28:56;6;5;
48717;PMS5003;34521;33.042;-96.586;2023-11-19T08:31:21;5;5;
48717;PMS5003;34521;33.042;-96.586;2023-11-19T08:33:46;5;5;
48717;PMS5003;34521;33.042;-96.586;2023-11-19T08:36:15;6;5;
48717;PMS5003;34521;33.042;-96.586;2023-11-19T08:38:36;4;4;
48717;PMS5003;34521;33.042;-96.586;2023-11-19T08:41:01;5;5;
48717;PMS5003;34521;33.042;-96.586;2023-11-19T08:43:26;6;5;
48717;PMS5003;34521;33.042;-96.586;2023-11-19T08:45:51;4;4;
48717;PMS5003;34521;33.042;-96.586;2023-11-19T08:48:16;6;6;
48717;PMS5003;34521;33.042;-96.586;2023-11-19T08:50:41;6;6;
48717;PMS5003;34521;33.042;-96.586;2023-11-19T08:53:06;6;6;
48717;PMS5003;34521;33.042;-96.586;2023-11-19T08:55:31;5;5;
48717;PMS5003;34521;33.042;-96.586;2023-11-19T08:57:56;7;6;
48717;PMS5003;34521;33.042;-96.586;2023-11-19T09:00:21;6;6;
48717;PMS5003;34521;33.042;-96.586;2023-11-19T09:02:46;7;6;
48717;PMS5003;34521;33.042;-96.586;2023-11-19T09:05:11;8;8;
48717;PMS5003;34521;33.042;-96.586;2023-11-19T09:07:36;5;5;
48717;PMS5003;34521;33.042;-96.586;2023-11-19T09:10:01;5;5;
48717;PMS5003;34521;33.042;-96.586;2023-11-19T09:12:27;5;5;
48717;PMS5003;34521;33.042;-96.586;2023-11-19T09:14:52;6;5;
48717;PMS5003;34521;33.042;-96.586;2023-11-19T09:17:17;4;4;
48717;PMS5003;34521;33.042;-96.586;2023-11-19T09:19:42;6;5;
48717;PMS5003;34521;33.042;-96.586;2023-11-19T09:22:07;4;4;
48717;PMS5003;34521;33.042;-96.586;2023-11-19T09:24:32;5;5;
48717;PMS5003;34521;33.042;-96.586;2023-11-19T09:26:57;6;6;
48717;PMS5003;34521;33.042;-96.586;2023-11-19T09:29:22;6;6;
48717;PMS5003;34521;33.042;-96.586;2023-11-19T09:31:48;8;7;
48717;PMS5003;34521;33.042;-96.586;2023-11-19T09:34:13;5;4;
48717;PMS5003;34521;33.042;-96.586;2023-11-19T09:36:38;6;6;
48717;PMS5003;34521;33.042;-96.586;2023-11-19T09:39:03;7;7;
48717;PMS5003;34521;33.042;-96.586;2023-11-19T09:41:28;6;6;
48717;PMS5003;34521;33.042;-96.586;2023-11-19T09:43:53;8;6;
48717;PMS5003;34521;33.042;-96.586;2023-11-19T09:46:18;5;5;
48717;PMS5003;34521;33.042;-96.586;2023-11-19T09:48:43;5;5;
48717;PMS5003;34521;33.042;-96.586;2023-11-19T09:51:09;6;6;
48717;PMS5003;34521;33.042;-96.586;2023-11-19T09:53:33;4;4;
48717;PMS5003;34521;33.042;-96.586;2023-11-19T09:55:58;6;6;
48717;PMS5003;34521;33.042;-96.586;2023-11-19T09:58:23;7;7;
48717;PMS5003;34521;33.042;-96.586;2023-11-19T10:00:49;4;4;
48717;PMS5003;34521;33.042;-96.586;2023-11-19T10:03:13;5;5;
48717;PMS5003;34521;33.042;-96.586;2023-11-19T10:05:38;5;5;
48717;PMS5003;34521;33.042;-96.586;2023-11-19T10:08:03;6;6;
48717;PMS5003;34521;33.042;-96.586;2023-11-19T10:10:28;6;6;
48717;PMS5003;34521;33.042;-96.586;2023-11-19T10:12:53;5;5;
48717;PMS5003;34521;33.042;-96.586;2023-11-19T10:15:20;5;5;
48717;PMS5003;34521;33.042;-96.586;2023-11-19T10:17:43;5;5;
48717;PMS5003;34521;33.042;-96.586;2023-11-19T10:20:09;6;6;
48717;PMS5003;34521;33.042;-96.586;2023-11-19T10:22:36;3;3;
48717;PMS5003;34521;33.042;-96.586;2023-11-19T10:24:59;5;3;
48717;PMS5003;34521;33.042;-96.586;2023-11-19T10:27:24;6;5;
48717;PMS5003;34521;33.042;-96.586;2023-11-19T10:29:49;5;5;
48717;PMS5003;34521;33.042;-96.586;2023-11-19T10:32:14;5;5;
48717;PMS5003;34521;33.042;-96.586;2023-11-19T10:34:39;4;4;
48717;PMS5003;34521;33.042;-96.586;2023-11-19T10:37:04;4;4;
48717;PMS5003;34521;33.042;-96.586;2023-11-19T10:39:33;5;5;
48717;PMS5003;34521;33.042;-96.586;2023-11-19T10:41:54;5;5;
48717;PMS5003;34521;33.042;-96.586;2023-11-19T10:46:44;7;6;
48717;PMS5003;34521;33.042;-96.586;2023-11-19T10:49:09;4;4;
48717;PMS5003;34521;33.042;-96.586;2023-11-19T10:51:34;5;5;
48717;PMS5003;34521;33.042;-96.586;2023-11-19T10:54:01;5;5;
48717;PMS5003;34521;33.042;-96.586;2023-11-19T10:56:25;5;5;
48717;PMS5003;34521;33.042;-96.586;2023-11-19T10:58:49;6;6;
48717;PMS5003;34521;33.042;-96.586;2023-11-19T11:01:16;4;4;
48717;PMS5003;34521;33.042;-96.586;2023-11-19T11:03:40;6;6;
48717;PMS5003;34521;33.042;-96.586;2023-11-19T11:06:05;4;4;
48717;PMS5003;34521;33.042;-96.586;2023-11-19T11:08:29;4;4;
48717;PMS5003;34521;33.042;-96.586;2023-11-19T11:10:55;4;4;
48717;PMS5003;34521;33.042;-96.586;2023-11-19T11:13:20;6;5;
48717;PMS5003;34521;33.042;-96.586;2023-11-19T11:15:45;3;3;
48717;PMS5003;34521;33.042;-96.586;2023-11-19T11:18:10;5;5;
48717;PMS5003;34521;33.042;-96.586;2023-11-19T11:20:35;4;4;
48717;PMS5003;34521;33.042;-96.586;2023-11-19T11:23:05;4;4;
48717;PMS5003;34521;33.042;-96.586;2023-11-19T11:25:29;3;3;
48717;PMS5003;34521;33.042;-96.586;2023-11-19T11:27:54;2;2;
48717;PMS5003;34521;33.042;-96.586;2023-11-19T11:30:19;4;4;
48717;PMS5003;34521;33.042;-96.586;2023-11-19T11:32:41;3;3;
48717;PMS5003;34521;33.042;-96.586;2023-11-19T11:35:12;5;4;
48717;PMS5003;34521;33.042;-96.586;2023-11-19T11:37:31;4;4;
48717;PMS5003;34521;33.042;-96.586;2023-11-19T11:39:56;5;5;
48717;PMS5003;34521;33.042;-96.586;2023-11-19T11:47:10;5;5;
48717;PMS5003;34521;33.042;-96.586;2023-11-19T11:49:35;4;4;
48717;PMS5003;34521;33.042;-96.586;2023-11-19T11:52:01;5;5;
48717;PMS5003;34521;33.042;-96.586;2023-11-19T11:54:26;4;4;
48717;PMS5003;34521;33.042;-96.586;2023-11-19T11:59:18;5;4;
48717;PMS5003;34521;33.042;-96.586;2023-11-19T12:01:42;4;4;
48717;PMS5003;34521;33.042;-96.586;2023-11-19T12:04:06;5;5;
48717;PMS5003;34521;33.042;-96.586;2023-11-19T12:06:31;5;5;
48717;PMS5003;34521;33.042;-96.586;2023-11-19T12:08:59;4;4;
48717;PMS5003;34521;33.042;-96.586;2023-11-19T12:11:21;6;6;
48717;PMS5003;34521;33.042;-96.586;2023-11-19T12:13:47;4;4;
48717;PMS5003;34521;33.042;-96.586;2023-11-19T12:16:11;5;4;
48717;PMS5003;34521;33.042;-96.586;2023-11-19T12:18:36;5;5;
48717;PMS5003;34521;33.042;-96.586;2023-11-19T12:21:01;4;4;
48717;PMS5003;34521;33.042;-96.586;2023-11-19T12:23:26;4;4;
48717;PMS5003;34521;33.042;-96.586;2023-11-19T12:25:51;4;4;
48717;PMS5003;34521;33.042;-96.586;2023-11-19T12:28:16;4;4;
48717;PMS5003;34521;33.042;-96.586;2023-11-19T12:30:41;4;4;
48717;PMS5003;34521;33.042;-96.586;2023-11-19T12:33:08;5;5;
48717;PMS5003;34521;33.042;-96.586;2023-11-19T12:35:31;5;5;
48717;PMS5003;34521;33.042;-96.586;2023-11-19T12:37:57;3;3;
48717;PMS5003;34521;33.042;-96.586;2023-11-19T12:40:22;4;4;
48717;PMS5003;34521;33.042;-96.586;2023-11-19T12:42:47;4;4;
48717;PMS5003;34521;33.042;-96.586;2023-11-19T12:45:12;5;4;
48717;PMS5003;34521;33.042;-96.586;2023-11-19T12:47:37;4;4;
48717;PMS5003;34521;33.042;-96.586;2023-11-19T12:50:02;2;2;
48717;PMS5003;34521;33.042;-96.586;2023-11-19T12:52:27;4;4;
48717;PMS5003;34521;33.042;-96.586;2023-11-19T12:54:52;6;6;
48717;PMS5003;34521;33.042;-96.586;2023-11-19T12:57:17;3;3;
48717;PMS5003;34521;33.042;-96.586;2023-11-19T12:59:42;5;5;
48717;PMS5003;34521;33.042;-96.586;2023-11-19T13:02:07;5;4;
48717;PMS5003;34521;33.042;-96.586;2023-11-19T13:04:32;4;4;
48717;PMS5003;34521;33.042;-96.586;2023-11-19T13:06:57;4;4;
48717;PMS5003;34521;33.042;-96.586;2023-11-19T13:09:22;6;6;
48717;PMS5003;34521;33.042;-96.586;2023-11-19T13:11:47;5;5;
48717;PMS5003;34521;33.042;-96.586;2023-11-19T13:14:12;4;4;
48717;PMS5003;34521;33.042;-96.586;2023-11-19T13:16:37;9;8;
48717;PMS5003;34521;33.042;-96.586;2023-11-19T13:19:02;7;7;
48717;PMS5003;34521;33.042;-96.586;2023-11-19T13:21:27;7;7;
48717;PMS5003;34521;33.042;-96.586;2023-11-19T13:23:52;6;5;
48717;PMS5003;34521;33.042;-96.586;2023-11-19T13:26:17;8;8;
48717;PMS5003;34521;33.042;-96.586;2023-11-19T13:28:43;8;8;
48717;PMS5003;34521;33.042;-96.586;2023-11-19T13:31:08;7;7;
48717;PMS5003;34521;33.042;-96.586;2023-11-19T13:33:33;6;6;
48717;PMS5003;34521;33.042;-96.586;2023-11-19T13:35:58;6;6;
48717;PMS5003;34521;33.042;-96.586;2023-11-19T13:38:23;10;9;
48717;PMS5003;34521;33.042;-96.586;2023-11-19T13:40:49;7;7;
48717;PMS5003;34521;33.042;-96.586;2023-11-19T13:43:13;6;6;
48717;PMS5003;34521;33.042;-96.586;2023-11-19T13:45:38;9;9;
48717;PMS5003;34521;33.042;-96.586;2023-11-19T13:48:04;9;9;
48717;PMS5003;34521;33.042;-96.586;2023-11-19T13:50:29;11;11;
48717;PMS5003;34521;33.042;-96.586;2023-11-19T13:52:54;18;17;
48717;PMS5003;34521;33.042;-96.586;2023-11-19T13:55:19;16;16;
48717;PMS5003;34521;33.042;-96.586;2023-11-19T13:57:45;19;19;
48717;PMS5003;34521;33.042;-96.586;2023-11-19T14:00:11;17;17;
48717;PMS5003;34521;33.042;-96.586;2023-11-19T14:02:36;23;21;
48717;PMS5003;34521;33.042;-96.586;2023-11-19T14:05:01;22;21;
48717;PMS5003;34521;33.042;-96.586;2023-11-19T14:07:27;31;29;
48717;PMS5003;34521;33.042;-96.586;2023-11-19T14:09:52;26;23;
48717;PMS5003;34521;33.042;-96.586;2023-11-19T14:12:18;29;28;
48717;PMS5003;34521;33.042;-96.586;2023-11-19T14:14:44;31;28;
48717;PMS5003;34521;33.042;-96.586;2023-11-19T14:17:09;29;27;
48717;PMS5003;34521;33.042;-96.586;2023-11-19T14:19:34;27;23;
48717;PMS5003;34521;33.042;-96.586;2023-11-19T14:22:00;25;24;
48717;PMS5003;34521;33.042;-96.586;2023-11-19T14:24:25;25;22;
48717;PMS5003;34521;33.042;-96.586;2023-11-19T14:26:51;22;20;
48717;PMS5003;34521;33.042;-96.586;2023-11-19T14:29:16;24;23;
48717;PMS5003;34521;33.042;-96.586;2023-11-19T14:31:41;25;21;
48717;PMS5003;34521;33.042;-96.586;2023-11-19T14:34:07;24;22;
48717;PMS5003;34521;33.042;-96.586;2023-11-19T14:36:32;20;19;
48717;PMS5003;34521;33.042;-96.586;2023-11-19T14:38:58;22;22;
48717;PMS5003;34521;33.042;-96.586;2023-11-19T14:41:23;25;24;
48717;PMS5003;34521;33.042;-96.586;2023-11-19T14:43:48;24;24;
48717;PMS5003;34521;33.042;-96.586;2023-11-19T14:46:14;27;22;
48717;PMS5003;34521;33.042;-96.586;2023-11-19T14:48:39;23;22;
48717;PMS5003;34521;33.042;-96.586;2023-11-19T14:51:05;26;23;
48717;PMS5003;34521;33.042;-96.586;2023-11-19T14:53:30;21;19;
48717;PMS5003;34521;33.042;-96.586;2023-11-19T14:55:56;23;23;
48717;PMS5003;34521;33.042;-96.586;2023-11-19T14:58:22;19;19;
48717;PMS5003;34521;33.042;-96.586;2023-11-19T15:00:47;23;22;
48717;PMS5003;34521;33.042;-96.586;2023-11-19T15:03:13;26;24;
48717;PMS5003;34521;33.042;-96.586;2023-11-19T15:05:38;23;22;
48717;PMS5003;34521;33.042;-96.586;2023-11-19T15:08:04;22;21;
48717;PMS5003;34521;33.042;-96.586;2023-11-19T15:10:30;18;17;
48717;PMS5003;34521;33.042;-96.586;2023-11-19T15:12:55;18;17;
48717;PMS5003;34521;33.042;-96.586;2023-11-19T15:15:21;16;14;
48717;PMS5003;34521;33.042;-96.586;2023-11-19T15:17:46;16;16;
48717;PMS5003;34521;33.042;-96.586;2023-11-19T15:20:12;13;12;
48717;PMS5003;34521;33.042;-96.586;2023-11-19T15:22:37;15;15;
48717;PMS5003;34521;33.042;-96.586;2023-11-19T15:25:02;14;12;
48717;PMS5003;34521;33.042;-96.586;2023-11-19T15:27:28;16;16;
48717;PMS5003;34521;33.042;-96.586;2023-11-19T15:29:53;14;13;
48717;PMS5003;34521;33.042;-96.586;2023-11-19T15:32:18;19;18;
48717;PMS5003;34521;33.042;-96.586;2023-11-19T15:34:44;15;14;
48717;PMS5003;34521;33.042;-96.586;2023-11-19T15:37:09;17;16;
48717;PMS5003;34521;33.042;-96.586;2023-11-19T15:39:34;17;16;
48717;PMS5003;34521;33.042;-96.586;2023-11-19T15:42:00;12;12;
48717;PMS5003;34521;33.042;-96.586;2023-11-19T15:44:25;12;11;
48717;PMS5003;34521;33.042;-96.586;2023-11-19T15:46:51;13;10;
48717;PMS5003;34521;33.042;-96.586;2023-11-19T15:49:16;12;12;
48717;PMS5003;34521;33.042;-96.586;2023-11-19T15:51:41;13;13;
48717;PMS5003;34521;33.042;-96.586;2023-11-19T15:54:07;11;11;
48717;PMS5003;34521;33.042;-96.586;2023-11-19T15:56:32;16;15;
48717;PMS5003;34521;33.042;-96.586;2023-11-19T15:58:57;15;15;
48717;PMS5003;34521;33.042;-96.586;2023-11-19T16:01:23;14;12;
48717;PMS5003;34521;33.042;-96.586;2023-11-19T16:03:49;11;10;
48717;PMS5003;34521;33.042;-96.586;2023-11-19T16:06:14;12;12;
48717;PMS5003;34521;33.042;-96.586;2023-11-19T16:08:39;10;10;